sensor_id;sensor_type;location;lat;lon;timestamp;P1;durP1;ratioP1;P2;durP2;ratioP2
10687;SDS011;5392;42.688;23.298;2022-07-06T00:01:49;13.23;;;12.30;;
10687;SDS011;5392;42.688;23.298;2022-07-06T00:04:20;12.45;;;11.48;;
10687;SDS011;5392;42.688;23.298;2022-07-06T00:06:47;13.82;;;12.60;;
10687;SDS011;5392;42.688;23.298;2022-07-06T00:09:14;13.18;;;11.93;;
10687;SDS011;5392;42.688;23.298;2022-07-06T00:11:41;13.07;;;11.98;;
10687;SDS011;5392;42.688;23.298;2022-07-06T00:14:08;13.73;;;12.35;;
10687;SDS011;5392;42.688;23.298;2022-07-06T00:16:35;13.60;;;12.40;;
10687;SDS011;5392;42.688;23.298;2022-07-06T00:19:02;15.40;;;14.15;;
10687;SDS011;5392;42.688;23.298;2022-07-06T00:21:29;15.65;;;14.30;;
10687;SDS011;5392;42.688;23.298;2022-07-06T00:23:56;15.70;;;14.43;;
10687;SDS011;5392;42.688;23.298;2022-07-06T00:26:22;16.65;;;14.93;;
10687;SDS011;5392;42.688;23.298;2022-07-06T00:28:49;17.27;;;15.63;;
10687;SDS011;5392;42.688;23.298;2022-07-06T00:31:16;18.38;;;16.70;;
10687;SDS011;5392;42.688;23.298;2022-07-06T00:33:43;20.20;;;18.17;;
10687;SDS011;5392;42.688;23.298;2022-07-06T00:36:10;20.10;;;18.10;;
10687;SDS011;5392;42.688;23.298;2022-07-06T00:38:36;21.48;;;19.38;;
10687;SDS011;5392;42.688;23.298;2022-07-06T00:41:03;21.55;;;19.58;;
10687;SDS011;5392;42.688;23.298;2022-07-06T00:43:52;22.20;;;19.88;;
10687;SDS011;5392;42.688;23.298;2022-07-06T00:46:17;23.83;;;21.48;;
10687;SDS011;5392;42.688;23.298;2022-07-06T00:48:44;22.02;;;19.67;;
10687;SDS011;5392;42.688;23.298;2022-07-06T00:51:11;21.15;;;19.10;;
10687;SDS011;5392;42.688;23.298;2022-07-06T00:53:38;19.33;;;17.67;;
10687;SDS011;5392;42.688;23.298;2022-07-06T00:56:06;19.17;;;17.60;;
10687;SDS011;5392;42.688;23.298;2022-07-06T00:58:33;18.92;;;17.25;;
10687;SDS011;5392;42.688;23.298;2022-07-06T01:01:00;20.17;;;18.35;;
10687;SDS011;5392;42.688;23.298;2022-07-06T01:03:27;18.75;;;17.05;;
10687;SDS011;5392;42.688;23.298;2022-07-06T01:05:54;19.30;;;17.60;;
10687;SDS011;5392;42.688;23.298;2022-07-06T01:08:20;17.98;;;16.33;;
10687;SDS011;5392;42.688;23.298;2022-07-06T01:10:50;18.63;;;16.58;;
10687;SDS011;5392;42.688;23.298;2022-07-06T01:13:17;18.80;;;16.73;;
10687;SDS011;5392;42.688;23.298;2022-07-06T01:15:44;19.83;;;18.02;;
10687;SDS011;5392;42.688;23.298;2022-07-06T01:18:11;19.50;;;17.67;;
10687;SDS011;5392;42.688;23.298;2022-07-06T01:20:38;19.77;;;17.88;;
10687;SDS011;5392;42.688;23.298;2022-07-06T01:23:05;18.90;;;17.17;;
10687;SDS011;5392;42.688;23.298;2022-07-06T01:25:32;21.00;;;18.90;;
10687;SDS011;5392;42.688;23.298;2022-07-06T01:27:59;20.25;;;18.25;;
10687;SDS011;5392;42.688;23.298;2022-07-06T01:30:25;19.83;;;17.92;;
10687;SDS011;5392;42.688;23.298;2022-07-06T01:32:52;20.90;;;18.77;;
10687;SDS011;5392;42.688;23.298;2022-07-06T01:35:19;20.05;;;17.98;;
10687;SDS011;5392;42.688;23.298;2022-07-06T01:37:46;20.77;;;18.88;;
10687;SDS011;5392;42.688;23.298;2022-07-06T01:40:13;19.88;;;18.05;;
10687;SDS011;5392;42.688;23.298;2022-07-06T01:42:40;18.45;;;16.50;;
10687;SDS011;5392;42.688;23.298;2022-07-06T01:45:07;19.02;;;17.23;;
10687;SDS011;5392;42.688;23.298;2022-07-06T01:47:34;18.13;;;16.13;;
10687;SDS011;5392;42.688;23.298;2022-07-06T01:50:03;14.23;;;12.90;;
10687;SDS011;5392;42.688;23.298;2022-07-06T01:52:32;14.45;;;13.35;;
10687;SDS011;5392;42.688;23.298;2022-07-06T01:54:59;13.32;;;12.30;;
10687;SDS011;5392;42.688;23.298;2022-07-06T01:57:26;14.75;;;13.50;;
10687;SDS011;5392;42.688;23.298;2022-07-06T01:59:53;13.60;;;12.55;;
10687;SDS011;5392;42.688;23.298;2022-07-06T02:02:19;14.93;;;13.63;;
10687;SDS011;5392;42.688;23.298;2022-07-06T02:04:46;15.27;;;13.85;;
10687;SDS011;5392;42.688;23.298;2022-07-06T02:07:12;15.23;;;13.82;;
10687;SDS011;5392;42.688;23.298;2022-07-06T02:09:39;14.93;;;13.52;;
10687;SDS011;5392;42.688;23.298;2022-07-06T02:12:06;16.08;;;14.60;;
10687;SDS011;5392;42.688;23.298;2022-07-06T02:14:33;15.10;;;13.57;;
10687;SDS011;5392;42.688;23.298;2022-07-06T02:16:59;15.52;;;13.70;;
10687;SDS011;5392;42.688;23.298;2022-07-06T02:19:26;15.13;;;13.70;;
10687;SDS011;5392;42.688;23.298;2022-07-06T02:21:53;16.75;;;14.60;;
10687;SDS011;5392;42.688;23.298;2022-07-06T02:24:20;14.85;;;13.50;;
10687;SDS011;5392;42.688;23.298;2022-07-06T02:26:46;14.48;;;13.13;;
10687;SDS011;5392;42.688;23.298;2022-07-06T02:29:13;16.30;;;14.65;;
10687;SDS011;5392;42.688;23.298;2022-07-06T02:31:40;14.27;;;12.82;;
10687;SDS011;5392;42.688;23.298;2022-07-06T02:34:07;14.40;;;13.07;;
10687;SDS011;5392;42.688;23.298;2022-07-06T02:36:33;13.45;;;12.32;;
10687;SDS011;5392;42.688;23.298;2022-07-06T02:39:00;12.25;;;11.32;;
10687;SDS011;5392;42.688;23.298;2022-07-06T02:41:27;12.27;;;11.27;;
10687;SDS011;5392;42.688;23.298;2022-07-06T02:43:53;11.70;;;10.60;;
10687;SDS011;5392;42.688;23.298;2022-07-06T02:46:20;13.98;;;11.35;;
10687;SDS011;5392;42.688;23.298;2022-07-06T02:48:47;14.18;;;11.98;;
10687;SDS011;5392;42.688;23.298;2022-07-06T02:51:14;13.98;;;12.82;;
10687;SDS011;5392;42.688;23.298;2022-07-06T02:53:40;14.50;;;13.10;;
10687;SDS011;5392;42.688;23.298;2022-07-06T02:56:07;15.32;;;13.88;;
10687;SDS011;5392;42.688;23.298;2022-07-06T02:58:33;14.82;;;13.40;;
10687;SDS011;5392;42.688;23.298;2022-07-06T03:01:00;14.57;;;13.30;;
10687;SDS011;5392;42.688;23.298;2022-07-06T03:03:27;15.30;;;13.63;;
10687;SDS011;5392;42.688;23.298;2022-07-06T03:05:53;14.00;;;12.60;;
10687;SDS011;5392;42.688;23.298;2022-07-06T03:08:20;16.25;;;14.75;;
10687;SDS011;5392;42.688;23.298;2022-07-06T03:10:47;14.50;;;13.20;;
10687;SDS011;5392;42.688;23.298;2022-07-06T03:13:14;13.82;;;12.57;;
10687;SDS011;5392;42.688;23.298;2022-07-06T03:15:40;12.80;;;11.80;;
10687;SDS011;5392;42.688;23.298;2022-07-06T03:18:07;12.40;;;11.27;;
10687;SDS011;5392;42.688;23.298;2022-07-06T03:20:34;12.15;;;11.13;;
10687;SDS011;5392;42.688;23.298;2022-07-06T03:23:01;10.93;;;10.13;;
10687;SDS011;5392;42.688;23.298;2022-07-06T03:25:27;9.82;;;9.00;;
10687;SDS011;5392;42.688;23.298;2022-07-06T03:27:54;8.25;;;7.55;;
10687;SDS011;5392;42.688;23.298;2022-07-06T03:30:21;7.95;;;7.32;;
10687;SDS011;5392;42.688;23.298;2022-07-06T03:32:47;7.45;;;6.85;;
10687;SDS011;5392;42.688;23.298;2022-07-06T03:35:14;6.63;;;6.30;;
10687;SDS011;5392;42.688;23.298;2022-07-06T03:37:41;6.60;;;6.07;;
10687;SDS011;5392;42.688;23.298;2022-07-06T03:40:07;7.13;;;6.63;;
10687;SDS011;5392;42.688;23.298;2022-07-06T03:42:35;5.88;;;5.63;;
10687;SDS011;5392;42.688;23.298;2022-07-06T03:45:03;5.25;;;5.05;;
10687;SDS011;5392;42.688;23.298;2022-07-06T03:47:31;6.50;;;5.70;;
10687;SDS011;5392;42.688;23.298;2022-07-06T03:49:58;6.65;;;6.03;;
10687;SDS011;5392;42.688;23.298;2022-07-06T03:52:25;4.53;;;4.22;;
10687;SDS011;5392;42.688;23.298;2022-07-06T03:54:52;7.57;;;4.18;;
10687;SDS011;5392;42.688;23.298;2022-07-06T03:57:18;3.05;;;2.83;;
10687;SDS011;5392;42.688;23.298;2022-07-06T03:59:45;3.65;;;3.33;;
10687;SDS011;5392;42.688;23.298;2022-07-06T04:02:11;2.92;;;2.40;;
10687;SDS011;5392;42.688;23.298;2022-07-06T04:04:38;7.47;;;3.13;;
10687;SDS011;5392;42.688;23.298;2022-07-06T04:07:05;2.88;;;2.15;;
10687;SDS011;5392;42.688;23.298;2022-07-06T04:09:32;2.72;;;2.08;;
10687;SDS011;5392;42.688;23.298;2022-07-06T04:11:58;2.28;;;1.88;;
10687;SDS011;5392;42.688;23.298;2022-07-06T04:14:25;2.30;;;1.80;;
10687;SDS011;5392;42.688;23.298;2022-07-06T04:16:53;1.70;;;1.58;;
10687;SDS011;5392;42.688;23.298;2022-07-06T04:19:20;2.92;;;2.65;;
10687;SDS011;5392;42.688;23.298;2022-07-06T04:21:47;8.13;;;2.40;;
10687;SDS011;5392;42.688;23.298;2022-07-06T04:24:13;2.70;;;1.90;;
10687;SDS011;5392;42.688;23.298;2022-07-06T04:26:40;1.80;;;1.40;;
10687;SDS011;5392;42.688;23.298;2022-07-06T04:29:07;4.40;;;2.08;;
10687;SDS011;5392;42.688;23.298;2022-07-06T04:31:33;3.25;;;1.83;;
10687;SDS011;5392;42.688;23.298;2022-07-06T04:34:00;2.53;;;2.20;;
10687;SDS011;5392;42.688;23.298;2022-07-06T04:36:27;4.15;;;2.08;;
10687;SDS011;5392;42.688;23.298;2022-07-06T04:38:53;3.63;;;2.03;;
10687;SDS011;5392;42.688;23.298;2022-07-06T04:41:20;1.88;;;1.85;;
10687;SDS011;5392;42.688;23.298;2022-07-06T04:43:47;2.22;;;1.67;;
10687;SDS011;5392;42.688;23.298;2022-07-06T04:46:13;2.45;;;2.28;;
10687;SDS011;5392;42.688;23.298;2022-07-06T04:48:40;3.03;;;2.75;;
10687;SDS011;5392;42.688;23.298;2022-07-06T04:51:07;5.00;;;3.95;;
10687;SDS011;5392;42.688;23.298;2022-07-06T04:53:33;5.75;;;5.40;;
10687;SDS011;5392;42.688;23.298;2022-07-06T04:56:00;7.63;;;5.95;;
10687;SDS011;5392;42.688;23.298;2022-07-06T04:58:27;7.35;;;6.75;;
10687;SDS011;5392;42.688;23.298;2022-07-06T05:00:53;9.40;;;7.50;;
10687;SDS011;5392;42.688;23.298;2022-07-06T05:03:20;7.70;;;7.00;;
10687;SDS011;5392;42.688;23.298;2022-07-06T05:05:47;8.50;;;7.70;;
10687;SDS011;5392;42.688;23.298;2022-07-06T05:08:14;9.90;;;9.00;;
10687;SDS011;5392;42.688;23.298;2022-07-06T05:10:40;11.95;;;10.52;;
10687;SDS011;5392;42.688;23.298;2022-07-06T05:13:07;10.90;;;9.38;;
10687;SDS011;5392;42.688;23.298;2022-07-06T05:15:34;10.95;;;9.82;;
10687;SDS011;5392;42.688;23.298;2022-07-06T05:18:00;12.75;;;10.18;;
10687;SDS011;5392;42.688;23.298;2022-07-06T05:20:27;12.63;;;9.80;;
10687;SDS011;5392;42.688;23.298;2022-07-06T05:22:54;10.05;;;8.98;;
10687;SDS011;5392;42.688;23.298;2022-07-06T05:25:21;11.75;;;10.60;;
10687;SDS011;5392;42.688;23.298;2022-07-06T05:27:47;12.80;;;9.52;;
10687;SDS011;5392;42.688;23.298;2022-07-06T05:30:14;11.07;;;10.00;;
10687;SDS011;5392;42.688;23.298;2022-07-06T05:32:42;10.88;;;7.40;;
10687;SDS011;5392;42.688;23.298;2022-07-06T05:35:08;8.05;;;6.70;;
10687;SDS011;5392;42.688;23.298;2022-07-06T05:37:55;7.43;;;6.50;;
10687;SDS011;5392;42.688;23.298;2022-07-06T05:40:22;6.93;;;6.40;;
10687;SDS011;5392;42.688;23.298;2022-07-06T05:42:48;6.75;;;5.95;;
10687;SDS011;5392;42.688;23.298;2022-07-06T05:45:15;6.82;;;5.15;;
10687;SDS011;5392;42.688;23.298;2022-07-06T05:47:42;7.63;;;6.90;;
10687;SDS011;5392;42.688;23.298;2022-07-06T05:50:27;9.35;;;5.80;;
10687;SDS011;5392;42.688;23.298;2022-07-06T05:52:58;6.70;;;6.10;;
10687;SDS011;5392;42.688;23.298;2022-07-06T05:55:36;8.00;;;7.07;;
10687;SDS011;5392;42.688;23.298;2022-07-06T05:58:03;5.85;;;5.28;;
10687;SDS011;5392;42.688;23.298;2022-07-06T06:00:30;5.05;;;4.80;;
10687;SDS011;5392;42.688;23.298;2022-07-06T06:02:57;8.13;;;7.18;;
10687;SDS011;5392;42.688;23.298;2022-07-06T06:05:25;6.93;;;6.30;;
10687;SDS011;5392;42.688;23.298;2022-07-06T06:07:52;6.85;;;5.35;;
10687;SDS011;5392;42.688;23.298;2022-07-06T06:10:20;9.90;;;6.47;;
10687;SDS011;5392;42.688;23.298;2022-07-06T06:12:51;7.45;;;6.47;;
10687;SDS011;5392;42.688;23.298;2022-07-06T06:15:18;8.82;;;5.93;;
10687;SDS011;5392;42.688;23.298;2022-07-06T06:17:45;6.63;;;6.18;;
10687;SDS011;5392;42.688;23.298;2022-07-06T06:20:13;7.25;;;6.65;;
10687;SDS011;5392;42.688;23.298;2022-07-06T06:22:50;7.15;;;6.50;;
10687;SDS011;5392;42.688;23.298;2022-07-06T06:25:29;8.55;;;6.53;;
10687;SDS011;5392;42.688;23.298;2022-07-06T06:28:04;7.20;;;6.78;;
10687;SDS011;5392;42.688;23.298;2022-07-06T06:30:33;7.97;;;7.15;;
10687;SDS011;5392;42.688;23.298;2022-07-06T06:33:10;7.60;;;7.10;;
10687;SDS011;5392;42.688;23.298;2022-07-06T06:35:42;12.02;;;8.20;;
10687;SDS011;5392;42.688;23.298;2022-07-06T06:38:11;8.55;;;7.75;;
10687;SDS011;5392;42.688;23.298;2022-07-06T06:40:38;9.98;;;8.82;;
10687;SDS011;5392;42.688;23.298;2022-07-06T06:43:05;10.77;;;8.23;;
10687;SDS011;5392;42.688;23.298;2022-07-06T06:45:32;8.52;;;7.78;;
10687;SDS011;5392;42.688;23.298;2022-07-06T06:47:59;8.25;;;7.55;;
10687;SDS011;5392;42.688;23.298;2022-07-06T06:50:26;7.97;;;7.05;;
10687;SDS011;5392;42.688;23.298;2022-07-06T06:52:53;8.55;;;7.88;;
10687;SDS011;5392;42.688;23.298;2022-07-06T06:55:20;10.23;;;7.78;;
10687;SDS011;5392;42.688;23.298;2022-07-06T06:57:47;8.20;;;7.60;;
10687;SDS011;5392;42.688;23.298;2022-07-06T07:00:14;7.90;;;7.30;;
10687;SDS011;5392;42.688;23.298;2022-07-06T07:02:41;7.10;;;6.70;;
10687;SDS011;5392;42.688;23.298;2022-07-06T07:05:08;7.45;;;6.80;;
10687;SDS011;5392;42.688;23.298;2022-07-06T07:07:34;10.05;;;8.02;;
10687;SDS011;5392;42.688;23.298;2022-07-06T07:10:03;9.88;;;7.80;;
10687;SDS011;5392;42.688;23.298;2022-07-06T07:12:31;7.72;;;7.22;;
10687;SDS011;5392;42.688;23.298;2022-07-06T07:14:59;10.23;;;8.27;;
10687;SDS011;5392;42.688;23.298;2022-07-06T07:17:27;9.48;;;8.65;;
10687;SDS011;5392;42.688;23.298;2022-07-06T07:19:54;8.90;;;8.13;;
10687;SDS011;5392;42.688;23.298;2022-07-06T07:22:23;10.43;;;8.40;;
10687;SDS011;5392;42.688;23.298;2022-07-06T07:24:50;8.85;;;8.35;;
10687;SDS011;5392;42.688;23.298;2022-07-06T07:27:17;9.32;;;8.60;;
10687;SDS011;5392;42.688;23.298;2022-07-06T07:29:44;9.77;;;8.95;;
10687;SDS011;5392;42.688;23.298;2022-07-06T07:32:11;9.80;;;8.90;;
10687;SDS011;5392;42.688;23.298;2022-07-06T07:34:38;9.10;;;8.32;;
10687;SDS011;5392;42.688;23.298;2022-07-06T07:37:05;8.32;;;7.65;;
10687;SDS011;5392;42.688;23.298;2022-07-06T07:39:31;8.90;;;8.40;;
10687;SDS011;5392;42.688;23.298;2022-07-06T07:41:58;8.27;;;7.72;;
10687;SDS011;5392;42.688;23.298;2022-07-06T07:44:24;7.82;;;7.22;;
10687;SDS011;5392;42.688;23.298;2022-07-06T07:46:53;7.75;;;7.03;;
10687;SDS011;5392;42.688;23.298;2022-07-06T07:49:20;6.85;;;6.43;;
10687;SDS011;5392;42.688;23.298;2022-07-06T07:51:50;6.93;;;6.45;;
10687;SDS011;5392;42.688;23.298;2022-07-06T07:54:17;7.10;;;6.60;;
10687;SDS011;5392;42.688;23.298;2022-07-06T07:56:43;7.85;;;7.15;;
10687;SDS011;5392;42.688;23.298;2022-07-06T07:59:10;6.50;;;6.20;;
10687;SDS011;5392;42.688;23.298;2022-07-06T08:01:38;7.13;;;6.63;;
10687;SDS011;5392;42.688;23.298;2022-07-06T08:04:05;6.80;;;6.40;;
10687;SDS011;5392;42.688;23.298;2022-07-06T08:06:31;6.38;;;6.00;;
10687;SDS011;5392;42.688;23.298;2022-07-06T08:08:59;6.95;;;6.30;;
10687;SDS011;5392;42.688;23.298;2022-07-06T08:11:25;7.00;;;6.28;;
10687;SDS011;5392;42.688;23.298;2022-07-06T08:13:52;8.73;;;6.28;;
10687;SDS011;5392;42.688;23.298;2022-07-06T08:16:19;5.50;;;5.10;;
10687;SDS011;5392;42.688;23.298;2022-07-06T08:18:46;5.78;;;5.22;;
10687;SDS011;5392;42.688;23.298;2022-07-06T08:21:13;7.03;;;5.53;;
10687;SDS011;5392;42.688;23.298;2022-07-06T08:23:55;9.93;;;6.03;;
10687;SDS011;5392;42.688;23.298;2022-07-06T08:26:22;6.25;;;5.78;;
10687;SDS011;5392;42.688;23.298;2022-07-06T08:28:49;15.27;;;12.65;;
10687;SDS011;5392;42.688;23.298;2022-07-06T08:31:17;6.22;;;5.93;;
10687;SDS011;5392;42.688;23.298;2022-07-06T08:34:03;7.03;;;6.55;;
10687;SDS011;5392;42.688;23.298;2022-07-06T08:36:30;7.68;;;6.88;;
10687;SDS011;5392;42.688;23.298;2022-07-06T08:38:58;7.80;;;6.50;;
10687;SDS011;5392;42.688;23.298;2022-07-06T08:41:25;7.57;;;6.80;;
10687;SDS011;5392;42.688;23.298;2022-07-06T08:43:54;6.80;;;6.40;;
10687;SDS011;5392;42.688;23.298;2022-07-06T08:46:21;5.75;;;5.32;;
10687;SDS011;5392;42.688;23.298;2022-07-06T08:48:49;5.30;;;5.05;;
10687;SDS011;5392;42.688;23.298;2022-07-06T08:51:16;6.50;;;6.00;;
10687;SDS011;5392;42.688;23.298;2022-07-06T08:53:44;8.48;;;7.78;;
10687;SDS011;5392;42.688;23.298;2022-07-06T08:56:12;10.90;;;8.85;;
10687;SDS011;5392;42.688;23.298;2022-07-06T08:58:39;7.93;;;7.25;;
10687;SDS011;5392;42.688;23.298;2022-07-06T09:01:09;10.55;;;8.25;;
10687;SDS011;5392;42.688;23.298;2022-07-06T09:03:40;7.55;;;7.05;;
10687;SDS011;5392;42.688;23.298;2022-07-06T09:06:07;7.35;;;6.70;;
10687;SDS011;5392;42.688;23.298;2022-07-06T09:08:35;6.43;;;6.20;;
10687;SDS011;5392;42.688;23.298;2022-07-06T09:11:05;7.47;;;6.97;;
10687;SDS011;5392;42.688;23.298;2022-07-06T09:13:32;7.43;;;7.13;;
10687;SDS011;5392;42.688;23.298;2022-07-06T09:16:11;7.47;;;7.00;;
10687;SDS011;5392;42.688;23.298;2022-07-06T09:18:59;6.78;;;6.22;;
10687;SDS011;5392;42.688;23.298;2022-07-06T09:21:30;7.10;;;6.47;;
10687;SDS011;5392;42.688;23.298;2022-07-06T09:23:59;7.45;;;6.82;;
10687;SDS011;5392;42.688;23.298;2022-07-06T09:26:29;6.97;;;6.63;;
10687;SDS011;5392;42.688;23.298;2022-07-06T09:28:56;7.85;;;7.30;;
10687;SDS011;5392;42.688;23.298;2022-07-06T09:31:24;7.55;;;7.00;;
10687;SDS011;5392;42.688;23.298;2022-07-06T09:34:03;7.32;;;6.70;;
10687;SDS011;5392;42.688;23.298;2022-07-06T09:36:38;7.15;;;6.88;;
10687;SDS011;5392;42.688;23.298;2022-07-06T09:41:45;9.30;;;8.48;;
10687;SDS011;5392;42.688;23.298;2022-07-06T09:44:13;9.13;;;8.27;;
10687;SDS011;5392;42.688;23.298;2022-07-06T09:46:45;10.00;;;9.50;;
10687;SDS011;5392;42.688;23.298;2022-07-06T09:49:13;9.82;;;9.07;;
10687;SDS011;5392;42.688;23.298;2022-07-06T09:51:44;9.40;;;8.80;;
10687;SDS011;5392;42.688;23.298;2022-07-06T09:54:12;10.35;;;9.50;;
10687;SDS011;5392;42.688;23.298;2022-07-06T09:56:39;10.35;;;9.75;;
10687;SDS011;5392;42.688;23.298;2022-07-06T09:59:14;10.57;;;9.85;;
10687;SDS011;5392;42.688;23.298;2022-07-06T10:01:42;11.32;;;10.40;;
10687;SDS011;5392;42.688;23.298;2022-07-06T10:04:10;9.63;;;9.02;;
10687;SDS011;5392;42.688;23.298;2022-07-06T10:06:44;10.43;;;9.73;;
10687;SDS011;5392;42.688;23.298;2022-07-06T10:09:12;10.73;;;10.02;;
10687;SDS011;5392;42.688;23.298;2022-07-06T10:11:41;10.35;;;9.73;;
10687;SDS011;5392;42.688;23.298;2022-07-06T10:14:11;11.23;;;10.20;;
10687;SDS011;5392;42.688;23.298;2022-07-06T10:16:41;11.68;;;10.65;;
10687;SDS011;5392;42.688;23.298;2022-07-06T10:19:08;10.50;;;9.80;;
10687;SDS011;5392;42.688;23.298;2022-07-06T10:21:36;9.98;;;9.30;;
10687;SDS011;5392;42.688;23.298;2022-07-06T10:24:04;11.40;;;10.65;;
10687;SDS011;5392;42.688;23.298;2022-07-06T10:26:32;9.40;;;8.90;;
10687;SDS011;5392;42.688;23.298;2022-07-06T10:29:01;11.20;;;10.40;;
10687;SDS011;5392;42.688;23.298;2022-07-06T10:31:29;11.20;;;10.40;;
10687;SDS011;5392;42.688;23.298;2022-07-06T10:33:58;11.25;;;10.55;;
10687;SDS011;5392;42.688;23.298;2022-07-06T10:36:28;10.80;;;10.05;;
10687;SDS011;5392;42.688;23.298;2022-07-06T10:38:55;10.55;;;9.77;;
10687;SDS011;5392;42.688;23.298;2022-07-06T10:41:32;11.10;;;10.50;;
10687;SDS011;5392;42.688;23.298;2022-07-06T10:44:16;8.93;;;8.38;;
10687;SDS011;5392;42.688;23.298;2022-07-06T10:46:54;9.90;;;8.95;;
10687;SDS011;5392;42.688;23.298;2022-07-06T10:49:23;9.30;;;8.57;;
10687;SDS011;5392;42.688;23.298;2022-07-06T10:52:12;10.20;;;9.48;;
10687;SDS011;5392;42.688;23.298;2022-07-06T10:54:43;11.48;;;10.70;;
10687;SDS011;5392;42.688;23.298;2022-07-06T10:57:10;9.35;;;8.95;;
10687;SDS011;5392;42.688;23.298;2022-07-06T10:59:41;9.13;;;8.63;;
10687;SDS011;5392;42.688;23.298;2022-07-06T11:02:29;10.15;;;9.65;;
10687;SDS011;5392;42.688;23.298;2022-07-06T11:05:09;11.43;;;10.63;;
10687;SDS011;5392;42.688;23.298;2022-07-06T11:07:46;10.23;;;9.48;;
10687;SDS011;5392;42.688;23.298;2022-07-06T11:10:16;8.52;;;7.95;;
10687;SDS011;5392;42.688;23.298;2022-07-06T11:12:45;12.23;;;11.00;;
10687;SDS011;5392;42.688;23.298;2022-07-06T11:15:12;10.60;;;10.00;;
10687;SDS011;5392;42.688;23.298;2022-07-06T11:18:14;10.80;;;10.00;;
10687;SDS011;5392;42.688;23.298;2022-07-06T11:23:42;11.13;;;10.52;;
10687;SDS011;5392;42.688;23.298;2022-07-06T11:26:10;10.43;;;9.60;;
10687;SDS011;5392;42.688;23.298;2022-07-06T11:28:37;9.48;;;8.98;;
10687;SDS011;5392;42.688;23.298;2022-07-06T11:31:04;11.32;;;10.63;;
10687;SDS011;5392;42.688;23.298;2022-07-06T11:33:32;12.25;;;11.45;;
10687;SDS011;5392;42.688;23.298;2022-07-06T11:36:16;10.18;;;9.43;;
10687;SDS011;5392;42.688;23.298;2022-07-06T11:38:44;11.25;;;10.68;;
10687;SDS011;5392;42.688;23.298;2022-07-06T11:41:12;10.75;;;10.00;;
10687;SDS011;5392;42.688;23.298;2022-07-06T11:43:44;10.63;;;10.02;;
10687;SDS011;5392;42.688;23.298;2022-07-06T11:46:21;10.95;;;10.25;;
10687;SDS011;5392;42.688;23.298;2022-07-06T11:48:53;11.40;;;10.68;;
10687;SDS011;5392;42.688;23.298;2022-07-06T11:51:26;9.70;;;9.00;;
10687;SDS011;5392;42.688;23.298;2022-07-06T11:53:55;11.35;;;10.63;;
10687;SDS011;5392;42.688;23.298;2022-07-06T11:56:23;11.43;;;10.52;;
10687;SDS011;5392;42.688;23.298;2022-07-06T11:58:54;9.57;;;8.95;;
10687;SDS011;5392;42.688;23.298;2022-07-06T12:01:23;9.30;;;8.75;;
10687;SDS011;5392;42.688;23.298;2022-07-06T12:03:51;9.65;;;9.25;;
10687;SDS011;5392;42.688;23.298;2022-07-06T12:06:21;9.65;;;8.93;;
10687;SDS011;5392;42.688;23.298;2022-07-06T12:08:50;9.45;;;8.85;;
10687;SDS011;5392;42.688;23.298;2022-07-06T12:11:19;10.77;;;9.88;;
10687;SDS011;5392;42.688;23.298;2022-07-06T12:13:48;7.70;;;7.10;;
10687;SDS011;5392;42.688;23.298;2022-07-06T12:16:16;8.35;;;7.75;;
10687;SDS011;5392;42.688;23.298;2022-07-06T12:18:44;7.88;;;7.47;;
10687;SDS011;5392;42.688;23.298;2022-07-06T12:21:14;6.80;;;6.40;;
10687;SDS011;5392;42.688;23.298;2022-07-06T12:23:47;7.18;;;6.70;;
10687;SDS011;5392;42.688;23.298;2022-07-06T12:26:15;7.60;;;7.15;;
10687;SDS011;5392;42.688;23.298;2022-07-06T12:28:44;8.40;;;7.90;;
10687;SDS011;5392;42.688;23.298;2022-07-06T12:31:11;7.28;;;6.93;;
10687;SDS011;5392;42.688;23.298;2022-07-06T12:33:57;7.28;;;6.95;;
10687;SDS011;5392;42.688;23.298;2022-07-06T12:36:24;7.10;;;6.80;;
10687;SDS011;5392;42.688;23.298;2022-07-06T12:38:50;6.05;;;5.85;;
10687;SDS011;5392;42.688;23.298;2022-07-06T12:41:26;6.93;;;6.50;;
10687;SDS011;5392;42.688;23.298;2022-07-06T12:44:02;5.50;;;5.40;;
10687;SDS011;5392;42.688;23.298;2022-07-06T12:46:37;5.75;;;5.55;;
10687;SDS011;5392;42.688;23.298;2022-07-06T12:49:12;6.03;;;5.38;;
10687;SDS011;5392;42.688;23.298;2022-07-06T12:51:48;4.60;;;4.40;;
10687;SDS011;5392;42.688;23.298;2022-07-06T12:54:18;4.07;;;3.88;;
10687;SDS011;5392;42.688;23.298;2022-07-06T12:59:24;4.32;;;3.85;;
10687;SDS011;5392;42.688;23.298;2022-07-06T13:01:52;3.97;;;3.88;;
10687;SDS011;5392;42.688;23.298;2022-07-06T13:04:26;3.95;;;3.83;;
10687;SDS011;5392;42.688;23.298;2022-07-06T13:06:55;4.22;;;3.92;;
10687;SDS011;5392;42.688;23.298;2022-07-06T13:09:22;3.72;;;3.40;;
10687;SDS011;5392;42.688;23.298;2022-07-06T13:11:49;2.40;;;2.30;;
10687;SDS011;5392;42.688;23.298;2022-07-06T13:14:16;2.33;;;2.22;;
10687;SDS011;5392;42.688;23.298;2022-07-06T13:16:44;2.35;;;2.00;;
10687;SDS011;5392;42.688;23.298;2022-07-06T13:19:12;3.30;;;1.65;;
10687;SDS011;5392;42.688;23.298;2022-07-06T13:21:39;1.52;;;1.42;;
10687;SDS011;5392;42.688;23.298;2022-07-06T13:24:06;2.30;;;2.03;;
10687;SDS011;5392;42.688;23.298;2022-07-06T13:26:33;1.85;;;1.23;;
10687;SDS011;5392;42.688;23.298;2022-07-06T13:29:00;1.02;;;1.02;;
10687;SDS011;5392;42.688;23.298;2022-07-06T13:31:27;2.15;;;1.02;;
10687;SDS011;5392;42.688;23.298;2022-07-06T13:33:54;1.40;;;1.40;;
10687;SDS011;5392;42.688;23.298;2022-07-06T13:36:25;1.00;;;1.00;;
10687;SDS011;5392;42.688;23.298;2022-07-06T13:38:52;1.48;;;1.23;;
10687;SDS011;5392;42.688;23.298;2022-07-06T13:41:18;3.20;;;0.95;;
10687;SDS011;5392;42.688;23.298;2022-07-06T13:43:45;1.40;;;0.63;;
10687;SDS011;5392;42.688;23.298;2022-07-06T13:46:12;3.05;;;0.70;;
10687;SDS011;5392;42.688;23.298;2022-07-06T13:48:39;0.60;;;0.50;;
10687;SDS011;5392;42.688;23.298;2022-07-06T13:51:05;2.25;;;0.77;;
10687;SDS011;5392;42.688;23.298;2022-07-06T13:53:32;1.13;;;0.60;;
10687;SDS011;5392;42.688;23.298;2022-07-06T13:55:59;0.90;;;0.70;;
10687;SDS011;5392;42.688;23.298;2022-07-06T13:58:26;1.83;;;0.70;;
10687;SDS011;5392;42.688;23.298;2022-07-06T14:00:53;2.00;;;0.60;;
10687;SDS011;5392;42.688;23.298;2022-07-06T14:03:20;0.88;;;0.50;;
10687;SDS011;5392;42.688;23.298;2022-07-06T14:05:48;1.58;;;0.43;;
10687;SDS011;5392;42.688;23.298;2022-07-06T14:08:15;1.05;;;0.40;;
10687;SDS011;5392;42.688;23.298;2022-07-06T14:10:42;0.98;;;0.40;;
10687;SDS011;5392;42.688;23.298;2022-07-06T14:13:09;1.40;;;0.45;;
10687;SDS011;5392;42.688;23.298;2022-07-06T14:15:41;1.63;;;0.50;;
10687;SDS011;5392;42.688;23.298;2022-07-06T14:18:09;0.55;;;0.50;;
10687;SDS011;5392;42.688;23.298;2022-07-06T14:20:36;2.28;;;0.50;;
10687;SDS011;5392;42.688;23.298;2022-07-06T14:23:03;2.35;;;0.50;;
10687;SDS011;5392;42.688;23.298;2022-07-06T14:25:30;0.50;;;0.50;;
10687;SDS011;5392;42.688;23.298;2022-07-06T14:27:56;0.50;;;0.50;;
10687;SDS011;5392;42.688;23.298;2022-07-06T14:30:23;1.05;;;0.40;;
10687;SDS011;5392;42.688;23.298;2022-07-06T14:32:50;0.40;;;0.40;;
10687;SDS011;5392;42.688;23.298;2022-07-06T14:35:17;3.22;;;0.50;;
10687;SDS011;5392;42.688;23.298;2022-07-06T14:37:44;0.40;;;0.40;;
10687;SDS011;5392;42.688;23.298;2022-07-06T14:40:10;3.28;;;0.60;;
10687;SDS011;5392;42.688;23.298;2022-07-06T14:42:37;0.77;;;0.40;;
10687;SDS011;5392;42.688;23.298;2022-07-06T14:45:04;1.95;;;0.50;;
10687;SDS011;5392;42.688;23.298;2022-07-06T14:47:32;0.57;;;0.40;;
10687;SDS011;5392;42.688;23.298;2022-07-06T14:49:58;0.40;;;0.40;;
10687;SDS011;5392;42.688;23.298;2022-07-06T14:52:25;1.10;;;0.50;;
10687;SDS011;5392;42.688;23.298;2022-07-06T14:54:52;1.30;;;0.45;;